Mount Pleasant, South Carolina
Current Conditions -  °F | °C
As of 9:55 PM on Sunday 23 Nov 2014 (Local Time) from KLRO Reporting Station
Few Clouds Few Clouds  
Wind Chill: 73°   Ceiling: Unl
Heat Index: 73°   Visibility: 4mi
Dew Point: 73°   Wind: 16mph
Humidity: 100%   Direction: 220°SW
Pressure: 29.87"   Gusts: 25mph
Location:  32.8°N, 79.89°W
Report Text: KLRO 240255Z AUTO 22014G22KT 4SM FEW008 23/23 A2987 RMK AO2 PWINO PNO
Loading
Personal Weather Stations






























Interactive Weather Map New forecast layout! Learn more

10-Day Weather Forecast

Advertisements
Track Severe Weather on mobile